IGO189 VOMM-VOBL
Flight info
| Callsign | IGO189 |
|---|---|
| Flight time | 0h 44m |
| Altitude | 20000 |
| Route | VOMM/07 MMV W117 XIVIL |
| Aircraft | A20N/M-SDE2E3FGHIRWXY/LB1 |
Departure
| Time | 2026-04-23 15:11 |
|---|---|
| Airport | Chennai International Airport (VOMM) |
Arrival
| Time | 2026-04-23 15:56 |
|---|---|
| Airport | Kempegowda International Airport Bengaluru (VOBL) |
| Time | Latitude | Longitude | Altitude | Speed | Heading |
|---|---|---|---|---|---|
| 2026-04-23 15:01 | 12.98446 | 80.16568 | 55 ft | 0 kts | 159° |
| 2026-04-23 15:04 | 12.98448 | 80.16567 | 55 ft | 1 kts | 159° |
| 2026-04-23 15:05 | 12.98454 | 80.16565 | 49 ft | 1 kts | 159° |
| 2026-04-23 15:05 | 12.98460 | 80.16562 | 50 ft | 2 kts | 159° |
| 2026-04-23 15:05 | 12.98469 | 80.16559 | 52 ft | 1 kts | 168° |
| 2026-04-23 15:05 | 12.98496 | 80.16559 | 50 ft | 4 kts | 200° |
| 2026-04-23 15:06 | 12.98520 | 80.16575 | 49 ft | 4 kts | 233° |
| 2026-04-23 15:06 | 12.98525 | 80.16584 | 49 ft | 0 kts | 243° |
| 2026-04-23 15:07 | 12.98525 | 80.16583 | 49 ft | 1 kts | 243° |
| 2026-04-23 15:08 | 12.98513 | 80.16553 | 51 ft | 9 kts | 248° |
| 2026-04-23 15:08 | 12.98481 | 80.16468 | 52 ft | 16 kts | 249° |
| 2026-04-23 15:08 | 12.98439 | 80.16352 | 52 ft | 19 kts | 249° |
| 2026-04-23 15:09 | 12.98343 | 80.16082 | 49 ft | 22 kts | 247° |
| 2026-04-23 15:09 | 12.98290 | 80.15937 | 55 ft | 19 kts | 269° |
| 2026-04-23 15:09 | 12.98305 | 80.15851 | 52 ft | 17 kts | 288° |
| 2026-04-23 15:09 | 12.98332 | 80.15760 | 53 ft | 19 kts | 287° |
| 2026-04-23 15:10 | 12.98370 | 80.15623 | 54 ft | 21 kts | 285° |
| 2026-04-23 15:10 | 12.98407 | 80.15478 | 54 ft | 18 kts | 290° |
| 2026-04-23 15:10 | 12.98484 | 80.15485 | 54 ft | 14 kts | 53° |
| 2026-04-23 15:10 | 12.98558 | 80.15676 | 52 ft | 57 kts | 70° |
| 2026-04-23 15:11 | 12.98782 | 80.16268 | 51 ft | 119 kts | 69° |
| 2026-04-23 15:11 | 12.99146 | 80.17222 | 52 ft | 166 kts | 69° |
| 2026-04-23 15:11 | 12.99607 | 80.18313 | 589 ft | 166 kts | 71° |
| 2026-04-23 15:11 | 13.00067 | 80.19433 | 1035 ft | 181 kts | 71° |
| 2026-04-23 15:12 | 13.00582 | 80.20694 | 1424 ft | 203 kts | 70° |
| 2026-04-23 15:12 | 13.01158 | 80.22101 | 1830 ft | 225 kts | 70° |
| 2026-04-23 15:12 | 13.01857 | 80.23627 | 2267 ft | 249 kts | 56° |
| 2026-04-23 15:12 | 13.03200 | 80.24845 | 2801 ft | 271 kts | 28° |
| 2026-04-23 15:13 | 13.05055 | 80.25296 | 3528 ft | 280 kts | 359° |
| 2026-04-23 15:13 | 13.06941 | 80.24823 | 4451 ft | 283 kts | 334° |
| 2026-04-23 15:13 | 13.08478 | 80.23550 | 5237 ft | 289 kts | 308° |
| 2026-04-23 15:13 | 13.09374 | 80.21727 | 5628 ft | 291 kts | 284° |
| 2026-04-23 15:14 | 13.09731 | 80.19677 | 5825 ft | 294 kts | 276° |
| 2026-04-23 15:14 | 13.09935 | 80.17587 | 6376 ft | 296 kts | 275° |
| 2026-04-23 15:14 | 13.10152 | 80.15495 | 7304 ft | 295 kts | 277° |
| 2026-04-23 15:14 | 13.10416 | 80.13393 | 8111 ft | 299 kts | 279° |
| 2026-04-23 15:15 | 13.10723 | 80.11267 | 8945 ft | 303 kts | 280° |
| 2026-04-23 15:15 | 13.11057 | 80.09114 | 9754 ft | 308 kts | 281° |
| 2026-04-23 15:15 | 13.11408 | 80.06915 | 10315 ft | 321 kts | 281° |
| 2026-04-23 15:15 | 13.11787 | 80.04571 | 10559 ft | 345 kts | 281° |
| 2026-04-23 15:16 | 13.12187 | 80.02075 | 10952 ft | 359 kts | 281° |
| 2026-04-23 15:16 | 13.12591 | 79.99535 | 11703 ft | 362 kts | 280° |
| 2026-04-23 15:16 | 13.12997 | 79.96980 | 12479 ft | 365 kts | 280° |
| 2026-04-23 15:16 | 13.13402 | 79.94425 | 13220 ft | 368 kts | 280° |
| 2026-04-23 15:17 | 13.13815 | 79.91817 | 13939 ft | 371 kts | 280° |
| 2026-04-23 15:17 | 13.14232 | 79.89194 | 14626 ft | 373 kts | 280° |
| 2026-04-23 15:17 | 13.14650 | 79.86550 | 15280 ft | 376 kts | 280° |
| 2026-04-23 15:17 | 13.15071 | 79.83895 | 15936 ft | 379 kts | 280° |
| 2026-04-23 15:18 | 13.15495 | 79.81214 | 16579 ft | 381 kts | 280° |
| 2026-04-23 15:18 | 13.15919 | 79.78524 | 17218 ft | 383 kts | 280° |
| 2026-04-23 15:18 | 13.16346 | 79.75815 | 17841 ft | 386 kts | 280° |
| 2026-04-23 15:18 | 13.16777 | 79.73084 | 18418 ft | 388 kts | 280° |
| 2026-04-23 15:19 | 13.17211 | 79.70338 | 18997 ft | 389 kts | 279° |
| 2026-04-23 15:19 | 13.17645 | 79.67588 | 19507 ft | 391 kts | 279° |
| 2026-04-23 15:19 | 13.18075 | 79.64864 | 19737 ft | 393 kts | 279° |
| 2026-04-23 15:19 | 13.18510 | 79.62094 | 19822 ft | 392 kts | 279° |
| 2026-04-23 15:20 | 13.18943 | 79.59331 | 19824 ft | 392 kts | 279° |
| 2026-04-23 15:20 | 13.19376 | 79.56568 | 19826 ft | 391 kts | 279° |
| 2026-04-23 15:20 | 13.19808 | 79.53811 | 19826 ft | 391 kts | 279° |
| 2026-04-23 15:20 | 13.20240 | 79.51051 | 19825 ft | 392 kts | 279° |
| 2026-04-23 15:21 | 13.20672 | 79.48289 | 19828 ft | 392 kts | 279° |
| 2026-04-23 15:21 | 13.21104 | 79.45520 | 19827 ft | 391 kts | 279° |
| 2026-04-23 15:21 | 13.21534 | 79.42766 | 19832 ft | 392 kts | 279° |
| 2026-04-23 15:21 | 13.21969 | 79.39985 | 19832 ft | 392 kts | 279° |
| 2026-04-23 15:22 | 13.22394 | 79.37261 | 19835 ft | 392 kts | 279° |
| 2026-04-23 15:22 | 13.22825 | 79.34493 | 19839 ft | 393 kts | 279° |
| 2026-04-23 15:22 | 13.23256 | 79.31727 | 19839 ft | 392 kts | 279° |
| 2026-04-23 15:22 | 13.23685 | 79.28961 | 19845 ft | 392 kts | 279° |
| 2026-04-23 15:23 | 13.24114 | 79.26202 | 19845 ft | 392 kts | 279° |
| 2026-04-23 15:23 | 13.24544 | 79.23432 | 19851 ft | 392 kts | 279° |
| 2026-04-23 15:23 | 13.24973 | 79.20668 | 19852 ft | 393 kts | 279° |
| 2026-04-23 15:23 | 13.25403 | 79.17902 | 19854 ft | 393 kts | 279° |
| 2026-04-23 15:24 | 13.25832 | 79.15136 | 19859 ft | 392 kts | 279° |
| 2026-04-23 15:24 | 13.26260 | 79.12370 | 19862 ft | 392 kts | 279° |
| 2026-04-23 15:24 | 13.26687 | 79.09608 | 19864 ft | 392 kts | 278° |
| 2026-04-23 15:24 | 13.27116 | 79.06832 | 19868 ft | 392 kts | 278° |
| 2026-04-23 15:25 | 13.27543 | 79.04060 | 19873 ft | 393 kts | 278° |
| 2026-04-23 15:25 | 13.27965 | 79.01334 | 19876 ft | 392 kts | 278° |
| 2026-04-23 15:25 | 13.28392 | 78.98569 | 19880 ft | 392 kts | 278° |
| 2026-04-23 15:25 | 13.28819 | 78.95799 | 19882 ft | 392 kts | 278° |
| 2026-04-23 15:26 | 13.29215 | 78.93032 | 19884 ft | 392 kts | 275° |
| 2026-04-23 15:26 | 13.29326 | 78.90226 | 19888 ft | 393 kts | 268° |
| 2026-04-23 15:26 | 13.29150 | 78.87428 | 19789 ft | 390 kts | 265° |
| 2026-04-23 15:26 | 13.28953 | 78.84654 | 19418 ft | 389 kts | 266° |
| 2026-04-23 15:27 | 13.28766 | 78.81916 | 18898 ft | 389 kts | 266° |
| 2026-04-23 15:27 | 13.28580 | 78.79152 | 18305 ft | 389 kts | 266° |
| 2026-04-23 15:27 | 13.28393 | 78.76380 | 17705 ft | 388 kts | 266° |
| 2026-04-23 15:27 | 13.28207 | 78.73632 | 17165 ft | 384 kts | 266° |
| 2026-04-23 15:28 | 13.28022 | 78.70904 | 16611 ft | 382 kts | 266° |
| 2026-04-23 15:28 | 13.27837 | 78.68190 | 16070 ft | 379 kts | 267° |
| 2026-04-23 15:28 | 13.27659 | 78.65506 | 15710 ft | 373 kts | 268° |
| 2026-04-23 15:28 | 13.27553 | 78.62822 | 15471 ft | 384 kts | 269° |
| 2026-04-23 15:29 | 13.27636 | 78.59988 | 15240 ft | 408 kts | 278° |
| 2026-04-23 15:29 | 13.28120 | 78.57220 | 15017 ft | 410 kts | 283° |
| 2026-04-23 15:29 | 13.28760 | 78.54335 | 14783 ft | 407 kts | 284° |
| 2026-04-23 15:29 | 13.29389 | 78.51503 | 14554 ft | 405 kts | 284° |
| 2026-04-23 15:30 | 13.30012 | 78.48688 | 14323 ft | 404 kts | 284° |
| 2026-04-23 15:30 | 13.30634 | 78.45869 | 14103 ft | 403 kts | 284° |
| 2026-04-23 15:30 | 13.31249 | 78.43072 | 13878 ft | 401 kts | 284° |
| 2026-04-23 15:30 | 13.31711 | 78.40252 | 13639 ft | 401 kts | 276° |
| 2026-04-23 15:31 | 13.31767 | 78.37374 | 13388 ft | 401 kts | 271° |
| 2026-04-23 15:31 | 13.31755 | 78.34553 | 13140 ft | 400 kts | 271° |
| 2026-04-23 15:31 | 13.31742 | 78.31696 | 12895 ft | 399 kts | 271° |
| 2026-04-23 15:31 | 13.31731 | 78.28848 | 12643 ft | 398 kts | 271° |
| 2026-04-23 15:32 | 13.31718 | 78.26003 | 12401 ft | 398 kts | 271° |
| 2026-04-23 15:32 | 13.31705 | 78.23171 | 12161 ft | 396 kts | 271° |
| 2026-04-23 15:32 | 13.31693 | 78.20341 | 11920 ft | 395 kts | 271° |
| 2026-04-23 15:32 | 13.31680 | 78.17526 | 11676 ft | 391 kts | 271° |
| 2026-04-23 15:33 | 13.31666 | 78.14783 | 11497 ft | 377 kts | 271° |
| 2026-04-23 15:33 | 13.31649 | 78.12145 | 11348 ft | 362 kts | 271° |
| 2026-04-23 15:33 | 13.31630 | 78.09604 | 11213 ft | 348 kts | 271° |
| 2026-04-23 15:33 | 13.31617 | 78.07983 | 11133 ft | 340 kts | 271° |
| 2026-04-23 15:34 | 13.31594 | 78.05405 | 11007 ft | 326 kts | 271° |
| 2026-04-23 15:34 | 13.31573 | 78.03123 | 10901 ft | 313 kts | 271° |
| 2026-04-23 15:34 | 13.31546 | 78.00913 | 10671 ft | 307 kts | 271° |
| 2026-04-23 15:34 | 13.31515 | 77.98717 | 10353 ft | 305 kts | 271° |
| 2026-04-23 15:35 | 13.31485 | 77.96547 | 10131 ft | 305 kts | 271° |
| 2026-04-23 15:35 | 13.31454 | 77.94361 | 9929 ft | 306 kts | 270° |
| 2026-04-23 15:35 | 13.31364 | 77.92188 | 9711 ft | 303 kts | 269° |
| 2026-04-23 15:35 | 13.31258 | 77.90026 | 9491 ft | 304 kts | 269° |
| 2026-04-23 15:36 | 13.31158 | 77.87861 | 9268 ft | 303 kts | 269° |
| 2026-04-23 15:36 | 13.31064 | 77.85730 | 9052 ft | 301 kts | 269° |
| 2026-04-23 15:36 | 13.30977 | 77.83581 | 8835 ft | 301 kts | 269° |
| 2026-04-23 15:36 | 13.30895 | 77.81432 | 8619 ft | 301 kts | 268° |
| 2026-04-23 15:37 | 13.30643 | 77.79303 | 8398 ft | 300 kts | 259° |
| 2026-04-23 15:37 | 13.30229 | 77.77205 | 8187 ft | 300 kts | 259° |
| 2026-04-23 15:37 | 13.29955 | 77.75806 | 8042 ft | 299 kts | 259° |
| 2026-04-23 15:37 | 13.29411 | 77.73007 | 7760 ft | 299 kts | 259° |
| 2026-04-23 15:38 | 13.29014 | 77.70917 | 7545 ft | 298 kts | 259° |
| 2026-04-23 15:38 | 13.28628 | 77.68863 | 7339 ft | 295 kts | 259° |
| 2026-04-23 15:38 | 13.28245 | 77.66817 | 7131 ft | 290 kts | 258° |
| 2026-04-23 15:38 | 13.27876 | 77.64802 | 6966 ft | 282 kts | 259° |
| 2026-04-23 15:39 | 13.27520 | 77.62862 | 6874 ft | 271 kts | 259° |
| 2026-04-23 15:39 | 13.27181 | 77.60992 | 6800 ft | 261 kts | 259° |
| 2026-04-23 15:39 | 13.26860 | 77.59187 | 6709 ft | 253 kts | 259° |
| 2026-04-23 15:39 | 13.26555 | 77.57424 | 6547 ft | 247 kts | 259° |
| 2026-04-23 15:40 | 13.26263 | 77.55719 | 6465 ft | 238 kts | 259° |
| 2026-04-23 15:40 | 13.25983 | 77.54081 | 6384 ft | 229 kts | 258° |
| 2026-04-23 15:40 | 13.25715 | 77.52485 | 6182 ft | 226 kts | 259° |
| 2026-04-23 15:40 | 13.25442 | 77.50946 | 6073 ft | 214 kts | 250° |
| 2026-04-23 15:41 | 13.24649 | 77.49758 | 5980 ft | 192 kts | 211° |
| 2026-04-23 15:41 | 13.23483 | 77.49385 | 5972 ft | 165 kts | 168° |
| 2026-04-23 15:41 | 13.22491 | 77.49910 | 6013 ft | 176 kts | 128° |
| 2026-04-23 15:41 | 13.21793 | 77.51036 | 5986 ft | 194 kts | 119° |
| 2026-04-23 15:42 | 13.21169 | 77.52247 | 5956 ft | 188 kts | 111° |
| 2026-04-23 15:42 | 13.20861 | 77.53526 | 5768 ft | 183 kts | 97° |
| 2026-04-23 15:42 | 13.20817 | 77.54820 | 5547 ft | 181 kts | 91° |
| 2026-04-23 15:42 | 13.20825 | 77.56105 | 5318 ft | 179 kts | 93° |
| 2026-04-23 15:43 | 13.20815 | 77.57368 | 5103 ft | 176 kts | 93° |
| 2026-04-23 15:43 | 13.20803 | 77.58621 | 4877 ft | 173 kts | 94° |
| 2026-04-23 15:43 | 13.20794 | 77.59814 | 4659 ft | 161 kts | 94° |
| 2026-04-23 15:43 | 13.20785 | 77.60888 | 4481 ft | 145 kts | 95° |
| 2026-04-23 15:44 | 13.20776 | 77.61764 | 4315 ft | 133 kts | 96° |
| 2026-04-23 15:44 | 13.20767 | 77.62723 | 4154 ft | 137 kts | 95° |
| 2026-04-23 15:44 | 13.20763 | 77.63688 | 3976 ft | 133 kts | 96° |
| 2026-04-23 15:44 | 13.20750 | 77.64604 | 3817 ft | 139 kts | 94° |
| 2026-04-23 15:45 | 13.20743 | 77.65611 | 3636 ft | 137 kts | 94° |
| 2026-04-23 15:45 | 13.20737 | 77.66558 | 3436 ft | 128 kts | 92° |
| 2026-04-23 15:45 | 13.20730 | 77.67506 | 3274 ft | 140 kts | 92° |
| 2026-04-23 15:45 | 13.20735 | 77.68487 | 3082 ft | 135 kts | 89° |
| 2026-04-23 15:46 | 13.20640 | 77.69451 | 3078 ft | 148 kts | 99° |
| 2026-04-23 15:46 | 13.20545 | 77.70539 | 3763 ft | 154 kts | 96° |
| 2026-04-23 15:46 | 13.20453 | 77.71536 | 4493 ft | 134 kts | 102° |
| 2026-04-23 15:46 | 13.20358 | 77.72469 | 5175 ft | 133 kts | 86° |
| 2026-04-23 15:47 | 13.20606 | 77.73058 | 5562 ft | 142 kts | 53° |
| 2026-04-23 15:47 | 13.21549 | 77.73556 | 5908 ft | 170 kts | 8° |
| 2026-04-23 15:47 | 13.23274 | 77.72987 | 6024 ft | 231 kts | 321° |
| 2026-04-23 15:47 | 13.23990 | 77.72110 | 5996 ft | 250 kts | 297° |
| 2026-04-23 15:48 | 13.24442 | 77.70379 | 6017 ft | 252 kts | 272° |
| 2026-04-23 15:48 | 13.24530 | 77.68583 | 6006 ft | 250 kts | 271° |
| 2026-04-23 15:48 | 13.24597 | 77.66877 | 6010 ft | 251 kts | 270° |
| 2026-04-23 15:48 | 13.24671 | 77.65087 | 6004 ft | 250 kts | 271° |
| 2026-04-23 15:49 | 13.24737 | 77.63314 | 5994 ft | 248 kts | 271° |
| 2026-04-23 15:49 | 13.24793 | 77.61541 | 6001 ft | 248 kts | 270° |
| 2026-04-23 15:49 | 13.24851 | 77.59771 | 6010 ft | 248 kts | 271° |
| 2026-04-23 15:49 | 13.24912 | 77.58002 | 6007 ft | 248 kts | 271° |
| 2026-04-23 15:50 | 13.24974 | 77.56230 | 5995 ft | 249 kts | 271° |
| 2026-04-23 15:50 | 13.25040 | 77.54462 | 6001 ft | 243 kts | 271° |
| 2026-04-23 15:50 | 13.25104 | 77.52773 | 5999 ft | 230 kts | 271° |
| 2026-04-23 15:50 | 13.24937 | 77.51216 | 5998 ft | 212 kts | 243° |
| 2026-04-23 15:51 | 13.24046 | 77.50123 | 6022 ft | 203 kts | 204° |
| 2026-04-23 15:51 | 13.22660 | 77.49782 | 6010 ft | 202 kts | 171° |
| 2026-04-23 15:51 | 13.21468 | 77.50367 | 5940 ft | 190 kts | 130° |
| 2026-04-23 15:51 | 13.20917 | 77.51547 | 5876 ft | 189 kts | 102° |
| 2026-04-23 15:52 | 13.20816 | 77.52831 | 5780 ft | 182 kts | 89° |
| 2026-04-23 15:52 | 13.20843 | 77.54107 | 5614 ft | 176 kts | 92° |
| 2026-04-23 15:52 | 13.20830 | 77.55358 | 5424 ft | 175 kts | 92° |
| 2026-04-23 15:52 | 13.20821 | 77.56599 | 5218 ft | 172 kts | 94° |
| 2026-04-23 15:53 | 13.20812 | 77.57820 | 4998 ft | 170 kts | 94° |
| 2026-04-23 15:53 | 13.20800 | 77.58989 | 4807 ft | 162 kts | 94° |
| 2026-04-23 15:53 | 13.20792 | 77.60054 | 4621 ft | 150 kts | 95° |
| 2026-04-23 15:53 | 13.20783 | 77.61070 | 4435 ft | 135 kts | 96° |
| 2026-04-23 15:54 | 13.20772 | 77.62036 | 4276 ft | 142 kts | 96° |
| 2026-04-23 15:54 | 13.20766 | 77.63041 | 4091 ft | 137 kts | 96° |
| 2026-04-23 15:54 | 13.20759 | 77.64011 | 3919 ft | 137 kts | 96° |
| 2026-04-23 15:54 | 13.20748 | 77.64973 | 3749 ft | 144 kts | 93° |
| 2026-04-23 15:55 | 13.20739 | 77.65988 | 3547 ft | 137 kts | 91° |
| 2026-04-23 15:55 | 13.20727 | 77.66941 | 3379 ft | 138 kts | 93° |
| 2026-04-23 15:55 | 13.20714 | 77.67961 | 3173 ft | 141 kts | 90° |
| 2026-04-23 15:55 | 13.20716 | 77.68938 | 3021 ft | 131 kts | 92° |
| 2026-04-23 15:56 | 13.20709 | 77.69757 | 3011 ft | 92 kts | 91° |
| 2026-04-23 15:56 | 13.20703 | 77.70211 | 3011 ft | 35 kts | 91° |
| 2026-04-23 15:56 | 13.20692 | 77.70437 | 3011 ft | 31 kts | 109° |
| 2026-04-23 15:56 | 13.20588 | 77.70621 | 3011 ft | 17 kts | 121° |
| 2026-04-23 15:57 | 13.20580 | 77.70636 | 3011 ft | 2 kts | 121° |
| 2026-04-23 15:57 | 13.20560 | 77.70670 | 3011 ft | 9 kts | 121° |
| 2026-04-23 15:57 | 13.20529 | 77.70758 | 3011 ft | 17 kts | 95° |
| 2026-04-23 15:57 | 13.20527 | 77.70831 | 3010 ft | 2 kts | 91° |
| 2026-04-23 15:58 | 13.20526 | 77.70878 | 3010 ft | 11 kts | 91° |
| 2026-04-23 15:58 | 13.20525 | 77.70977 | 3010 ft | 18 kts | 90° |
| 2026-04-23 15:58 | 13.20523 | 77.71129 | 3011 ft | 24 kts | 91° |
| 2026-04-23 15:58 | 13.20522 | 77.71199 | 3011 ft | 4 kts | 90° |
| 2026-04-23 15:59 | 13.20510 | 77.71252 | 3014 ft | 10 kts | 142° |
| 2026-04-23 15:59 | 13.20413 | 77.71258 | 3011 ft | 18 kts | 181° |
| 2026-04-23 15:59 | 13.20284 | 77.71256 | 3011 ft | 16 kts | 182° |
| 2026-04-23 15:59 | 13.20252 | 77.71160 | 3011 ft | 19 kts | 261° |
| 2026-04-23 16:00 | 13.20261 | 77.71007 | 3011 ft | 24 kts | 272° |
| 2026-04-23 16:00 | 13.20241 | 77.70839 | 3011 ft | 25 kts | 270° |
| 2026-04-23 16:00 | 13.20240 | 77.70768 | 3011 ft | 0 kts | 262° |
| 2026-04-23 16:00 | 13.20221 | 77.70754 | 3011 ft | 7 kts | 199° |
| 2026-04-23 16:01 | 13.20170 | 77.70752 | 3011 ft | 3 kts | 180° |
| 2026-04-23 16:01 | 13.20164 | 77.70752 | 3011 ft | 0 kts | 180° |